Golden Shanghai — 9HA2862 — position and weather

sailwx.info

Track history (hours):
 
Tides and Currents Weather Stations Pressure Air Temp Water Temp Dewpoint Dewpoint Depression Visibility Wind Speed Wind Dir Waves Ship Positions

Golden Shanghai

Last reported at 2014-Dec-14 13:11 UTC. Time now 2014-Dec-19 10:10 UTC.
Position S 30°24' E 030°55'.

Length 292 m; draft 10.3 m.

Type: Cargo ship. MMSI: 256456000.

Date/timePositionNaut miles runAvg speedWind from/ knotsBaromVisibWave heightAir tempDewpointWater temp
2014-Dec-14 13:11S 30°24' E 030°55'6 9.2
2014-Dec-14 12:32S 30°19' E 030°59'9 9.0
2014-Dec-14 11:33S 30°12' E 031°04'10 9.8
2014-Dec-14 10:33S 30°04' E 031°11'10 9.8
2014-Dec-14 09:33S 29°54' E 031°10'7 6.3
2014-Dec-14 08:31S 29°53' E 031°02'0 0.3
2014-Dec-14 07:31S 29°52' E 031°02'0 0.0
2014-Dec-14 06:31S 29°52' E 031°02'0 0.0
2014-Dec-14 05:31S 29°52' E 031°02'0 0.0
2014-Dec-14 04:25S 29°52' E 031°02'0 0.0
2014-Dec-14 03:31S 29°52' E 031°02'0 0.0
2014-Dec-14 02:31S 29°52' E 031°02'0 0.0
2014-Dec-14 01:31S 29°52' E 031°02'0 0.0
2014-Dec-14 00:31S 29°52' E 031°02'0 0.0
2014-Dec-13 23:31S 29°52' E 031°02'0 0.0
2014-Dec-13 22:31S 29°52' E 031°02'0 0.0
2014-Dec-13 21:31S 29°52' E 031°02'2 1.6
2014-Dec-13 20:33S 29°52' E 031°04'4 3.9
2014-Dec-13 19:33S 29°48' E 031°06'3 3.0
2014-Dec-13 18:33S 29°45' E 031°07'0 0.1
2014-Dec-13 17:27S 29°45' E 031°07'0 0.0
2014-Dec-13 16:33S 29°45' E 031°07'0 0.0
2014-Dec-13 15:33S 29°45' E 031°07'0 0.0
2014-Dec-13 14:33S 29°45' E 031°07'0 0.0
2014-Dec-13 13:33S 29°45' E 031°07'0 0.0
2014-Dec-13 12:33S 29°45' E 031°07'0 0.0
2014-Dec-13 11:33S 29°45' E 031°07'0 0.0
2014-Dec-13 10:33S 29°45' E 031°07'0 0.0
2014-Dec-13 09:33S 29°45' E 031°07'0 0.0
2014-Dec-13 08:33S 29°45' E 031°07'0 0.0
2014-Dec-13 07:33S 29°45' E 031°07'0 0.0
2014-Dec-13 06:33S 29°45' E 031°07'0 0.0
2014-Dec-13 05:33S 29°45' E 031°07'0 0.0
2014-Dec-13 04:33S 29°45' E 031°07'0 0.0
2014-Dec-13 03:33S 29°45' E 031°07'0 0.0
2014-Dec-13 02:33S 29°45' E 031°07'0 0.0
2014-Dec-13 01:33S 29°45' E 031°07'0 0.1
2014-Dec-13 00:33S 29°45' E 031°07'0 0.0
2014-Dec-12 23:33S 29°45' E 031°07'0 0.0
2014-Dec-12 22:33S 29°45' E 031°07'0 0.0
2014-Dec-12 21:33S 29°45' E 031°07'0 0.0
2014-Dec-12 20:33S 29°45' E 031°07'0 0.0
2014-Dec-12 19:33S 29°45' E 031°07'0 0.1
2014-Dec-12 18:33S 29°45' E 031°07'0 0.1
2014-Dec-12 17:33S 29°45' E 031°07'0 0.0
2014-Dec-12 16:33S 29°45' E 031°07'0 0.0
2014-Dec-12 15:33S 29°45' E 031°07'0 0.0
2014-Dec-12 14:33S 29°45' E 031°07'0 0.0
2014-Dec-12 13:33S 29°45' E 031°07'0 0.2
2014-Dec-12 12:33S 29°45' E 031°07'0 0.1
2014-Dec-12 11:33S 29°45' E 031°07'0 0.0
2014-Dec-12 10:33S 29°45' E 031°07'0 0.0
2014-Dec-12 09:33S 29°45' E 031°07'0 0.0
2014-Dec-12 08:33S 29°45' E 031°07'0 0.0
2014-Dec-12 07:33S 29°45' E 031°07'0 0.1
2014-Dec-12 06:33S 29°45' E 031°07'0 0.0
2014-Dec-12 05:33S 29°45' E 031°07'0 0.0
2014-Dec-12 04:33S 29°45' E 031°07'0 0.0
2014-Dec-12 03:33S 29°45' E 031°07'0 0.0
2014-Dec-12 02:33S 29°45' E 031°07'0 0.0
2014-Dec-12 01:33S 29°45' E 031°07'0 0.0
2014-Dec-12 00:33S 29°45' E 031°07'0 0.0
2014-Dec-11 23:33S 29°45' E 031°07'0 0.1
2014-Dec-11 22:33S 29°45' E 031°07'0 0.0
2014-Dec-11 21:33S 29°45' E 031°07'0 0.1
2014-Dec-11 20:33S 29°45' E 031°07'4 3.7
2014-Dec-11 19:33S 29°49' E 031°09'10 9.8
2014-Dec-11 18:33S 29°50' E 031°20'1010.4
2014-Dec-11 17:33S 29°43' E 031°29'1110.7
2014-Dec-11 16:33S 29°35' E 031°37'1111.2
2014-Dec-11 15:33S 29°26' E 031°45'1211.8
2014-Dec-11 14:31S 29°18' E 031°56'1414.3
2014-Dec-11 13:33S 29°10' E 032°08'  
Track history (hours):
 
Tides and Currents Weather Stations Pressure Air Temp Water Temp Dewpoint Dewpoint Depression Visibility Wind Speed Wind Dir Waves Ship Positions

Golden Shanghai

Last reported at 2014-Dec-14 13:11 UTC. Time now 2014-Dec-19 10:10 UTC.
Position S 30°24' E 030°55'.

Length 292 m; draft 10.3 m.

Type: Cargo ship. MMSI: 256456000.

Date/timePositionNaut miles runAvg speedWind from/ knotsBaromVisibWave heightAir tempDewpointWater temp
2014-Dec-14 13:11S 30°24' E 030°55'6 9.2
2014-Dec-14 12:32S 30°19' E 030°59'9 9.0
2014-Dec-14 11:33S 30°12' E 031°04'10 9.8
2014-Dec-14 10:33S 30°04' E 031°11'10 9.8
2014-Dec-14 09:33S 29°54' E 031°10'7 6.3
2014-Dec-14 08:31S 29°53' E 031°02'0 0.3
2014-Dec-14 07:31S 29°52' E 031°02'0 0.0
2014-Dec-14 06:31S 29°52' E 031°02'0 0.0
2014-Dec-14 05:31S 29°52' E 031°02'0 0.0
2014-Dec-14 04:25S 29°52' E 031°02'0 0.0
2014-Dec-14 03:31S 29°52' E 031°02'0 0.0
2014-Dec-14 02:31S 29°52' E 031°02'0 0.0
2014-Dec-14 01:31S 29°52' E 031°02'0 0.0
2014-Dec-14 00:31S 29°52' E 031°02'0 0.0
2014-Dec-13 23:31S 29°52' E 031°02'0 0.0
2014-Dec-13 22:31S 29°52' E 031°02'0 0.0
2014-Dec-13 21:31S 29°52' E 031°02'2 1.6
2014-Dec-13 20:33S 29°52' E 031°04'4 3.9
2014-Dec-13 19:33S 29°48' E 031°06'3 3.0
2014-Dec-13 18:33S 29°45' E 031°07'0 0.1
2014-Dec-13 17:27S 29°45' E 031°07'0 0.0
2014-Dec-13 16:33S 29°45' E 031°07'0 0.0
2014-Dec-13 15:33S 29°45' E 031°07'0 0.0
2014-Dec-13 14:33S 29°45' E 031°07'0 0.0
2014-Dec-13 13:33S 29°45' E 031°07'0 0.0
2014-Dec-13 12:33S 29°45' E 031°07'0 0.0
2014-Dec-13 11:33S 29°45' E 031°07'0 0.0
2014-Dec-13 10:33S 29°45' E 031°07'0 0.0
2014-Dec-13 09:33S 29°45' E 031°07'0 0.0
2014-Dec-13 08:33S 29°45' E 031°07'0 0.0
2014-Dec-13 07:33S 29°45' E 031°07'0 0.0
2014-Dec-13 06:33S 29°45' E 031°07'0 0.0
2014-Dec-13 05:33S 29°45' E 031°07'0 0.0
2014-Dec-13 04:33S 29°45' E 031°07'0 0.0
2014-Dec-13 03:33S 29°45' E 031°07'0 0.0
2014-Dec-13 02:33S 29°45' E 031°07'0 0.0
2014-Dec-13 01:33S 29°45' E 031°07'0 0.1
2014-Dec-13 00:33S 29°45' E 031°07'0 0.0
2014-Dec-12 23:33S 29°45' E 031°07'0 0.0
2014-Dec-12 22:33S 29°45' E 031°07'0 0.0
2014-Dec-12 21:33S 29°45' E 031°07'0 0.0
2014-Dec-12 20:33S 29°45' E 031°07'0 0.0
2014-Dec-12 19:33S 29°45' E 031°07'0 0.1
2014-Dec-12 18:33S 29°45' E 031°07'0 0.1
2014-Dec-12 17:33S 29°45' E 031°07'0 0.0
2014-Dec-12 16:33S 29°45' E 031°07'0 0.0
2014-Dec-12 15:33S 29°45' E 031°07'0 0.0
2014-Dec-12 14:33S 29°45' E 031°07'0 0.0
2014-Dec-12 13:33S 29°45' E 031°07'0 0.2
2014-Dec-12 12:33S 29°45' E 031°07'0 0.1
2014-Dec-12 11:33S 29°45' E 031°07'0 0.0
2014-Dec-12 10:33S 29°45' E 031°07'0 0.0
2014-Dec-12 09:33S 29°45' E 031°07'0 0.0
2014-Dec-12 08:33S 29°45' E 031°07'0 0.0
2014-Dec-12 07:33S 29°45' E 031°07'0 0.1
2014-Dec-12 06:33S 29°45' E 031°07'0 0.0
2014-Dec-12 05:33S 29°45' E 031°07'0 0.0
2014-Dec-12 04:33S 29°45' E 031°07'0 0.0
2014-Dec-12 03:33S 29°45' E 031°07'0 0.0
2014-Dec-12 02:33S 29°45' E 031°07'0 0.0
2014-Dec-12 01:33S 29°45' E 031°07'0 0.0
2014-Dec-12 00:33S 29°45' E 031°07'0 0.0
2014-Dec-11 23:33S 29°45' E 031°07'0 0.1
2014-Dec-11 22:33S 29°45' E 031°07'0 0.0
2014-Dec-11 21:33S 29°45' E 031°07'0 0.1
2014-Dec-11 20:33S 29°45' E 031°07'4 3.7
2014-Dec-11 19:33S 29°49' E 031°09'10 9.8
2014-Dec-11 18:33S 29°50' E 031°20'1010.4
2014-Dec-11 17:33S 29°43' E 031°29'1110.7
2014-Dec-11 16:33S 29°35' E 031°37'1111.2
2014-Dec-11 15:33S 29°26' E 031°45'1211.8
2014-Dec-11 14:31S 29°18' E 031°56'1414.3
2014-Dec-11 13:33S 29°10' E 032°08'  

Dump ship's entire track history